Meppe Airport ETWM

Flugplatz Daten

Name: Meppe Airport

Ident: ETWM

Lat: 52,72320175

Long: 7,326330185

Platzhöhe: 0 ft

IataCode:

City:

Metar

2021/10/25 22:20
ETWM 252220Z AUTO 19008KT //// // ////// 12/10 Q1016 ///

Taf

Gewünschte Webcam nicht vorhanden? Dann fügen Sie eine hinzu. Sie wird dann so schnell wie möglich freigeschaltet
Url: Title: